Terminal Aerodrome Forecast
Issued by NWS Mt. Holly, NJ

Home | Current Version | Previous Version | Text Only | Print | Product List | Glossary On
Versions: 1 2 3 4 5 6 7 8 9 10 11 12 13 14 15 16 17
000
FTUS41 KPHI 290258 AAA
TAFABE
TAF AMD
KABE 290258Z 2903/2924 07012G22KT 6SM BR OVC015
     FM290800 07011G21KT 5SM -SHRA OVC007
      TEMPO 2908/2912 2SM SHRA
     FM291400 08012G22KT 6SM -SHRA OVC011
     FM291800 06013G25KT P6SM -SHRA OVC015=

USA.gov is the U.S. government's official web portal to all federal, state and local government web resources and services.